createdAt,value
2018-05-17T00:01:24.611Z,29.90
2018-05-17T00:03:53.602Z,29.80
2018-05-17T00:06:23.709Z,29.80
2018-05-17T00:08:52.712Z,29.80
2018-05-17T00:11:22.278Z,29.80
2018-05-17T00:13:51.350Z,29.80
2018-05-17T00:16:21.226Z,29.80
2018-05-17T00:18:50.326Z,29.80
2018-05-17T00:21:20.051Z,29.80
2018-05-17T00:23:49.039Z,29.80
2018-05-17T00:26:18.033Z,29.90
2018-05-17T00:28:47.166Z,29.80
2018-05-17T00:31:17.006Z,29.80
2018-05-17T00:33:46.734Z,29.80
2018-05-17T00:36:15.714Z,29.80
2018-05-17T00:38:44.642Z,29.80
2018-05-17T00:41:13.977Z,29.80
2018-05-17T00:43:45.706Z,29.80
2018-05-17T00:46:14.938Z,29.70
2018-05-17T00:48:43.897Z,29.70
2018-05-17T00:51:13.046Z,29.70
2018-05-17T00:53:42.094Z,29.70
2018-05-17T00:56:11.033Z,29.70
2018-05-17T00:58:39.978Z,29.60
2018-05-17T01:01:09.224Z,29.70
2018-05-17T01:03:38.174Z,29.60
2018-05-17T01:06:07.123Z,29.60
2018-05-17T01:08:36.190Z,29.70
2018-05-17T01:11:05.159Z,29.70
2018-05-17T01:13:34.149Z,29.80
2018-05-17T01:16:03.278Z,29.70
2018-05-17T01:18:32.242Z,29.80
2018-05-17T01:21:01.237Z,29.70
2018-05-17T01:23:30.004Z,29.70
2018-05-17T01:25:59.094Z,29.70
2018-05-17T01:28:28.962Z,29.70
2018-05-17T01:30:58.329Z,29.70
2018-05-17T01:33:27.335Z,29.70
2018-05-17T01:35:57.006Z,29.70
2018-05-17T01:38:27.372Z,29.70
2018-05-17T01:40:56.370Z,29.70
2018-05-17T01:43:25.365Z,29.70
2018-05-17T01:45:55.414Z,29.80
2018-05-17T01:48:24.750Z,29.70
2018-05-17T01:50:54.018Z,29.80
2018-05-17T01:53:23.454Z,29.80
2018-05-17T01:55:52.791Z,29.80
2018-05-17T01:58:21.954Z,29.80
2018-05-17T02:00:51.367Z,29.80
2018-05-17T02:03:21.056Z,29.90
2018-05-17T02:05:50.226Z,29.80
2018-05-17T02:08:19.703Z,29.90
2018-05-17T02:10:48.796Z,29.90
2018-05-17T02:13:17.782Z,30.00
2018-05-17T02:15:46.977Z,30.00
2018-05-17T02:18:16.840Z,30.10
2018-05-17T02:20:48.746Z,30.10
2018-05-17T02:23:17.927Z,30.20
2018-05-17T02:25:47.029Z,30.20
2018-05-17T02:28:15.802Z,30.30
2018-05-17T02:30:45.013Z,30.30
2018-05-17T02:33:14.742Z,30.50
2018-05-17T02:35:44.858Z,30.60
2018-05-17T02:38:13.855Z,30.50
2018-05-17T02:40:42.878Z,30.70
2018-05-17T02:43:12.159Z,30.70
2018-05-17T02:45:42.154Z,30.90
2018-05-17T02:48:12.544Z,30.90
2018-05-17T02:50:41.679Z,31.00
2018-05-17T02:53:11.421Z,31.20
2018-05-17T02:55:40.619Z,31.20
2018-05-17T02:58:10.641Z,31.50
2018-05-17T03:00:39.755Z,31.50
2018-05-17T03:03:09.397Z,31.70
2018-05-17T03:05:38.419Z,31.70
2018-05-17T03:08:07.349Z,31.90
2018-05-17T03:10:36.486Z,32.00
2018-05-17T03:13:06.249Z,32.20
2018-05-17T03:15:36.037Z,32.20
2018-05-17T03:18:05.761Z,32.20
2018-05-17T03:20:35.554Z,32.50
2018-05-17T03:23:05.826Z,32.60
2018-05-17T03:25:34.890Z,32.60
2018-05-17T03:28:04.029Z,32.80
2018-05-17T03:30:33.294Z,32.80
2018-05-17T03:33:02.222Z,33.00
2018-05-17T03:35:31.230Z,33.20
2018-05-17T03:38:00.953Z,33.10
2018-05-17T03:40:30.086Z,33.20
2018-05-17T03:42:59.840Z,33.50
2018-05-17T03:45:29.166Z,33.50
2018-05-17T03:47:58.083Z,33.70
2018-05-17T03:50:27.183Z,33.90
2018-05-17T03:52:56.481Z,33.90
2018-05-17T03:55:25.651Z,34.00
2018-05-17T03:57:54.781Z,34.30
2018-05-17T04:00:24.018Z,34.30
2018-05-17T04:03:05.459Z,34.60
2018-05-17T04:06:01.767Z,34.60
2018-05-17T04:08:31.819Z,34.90
2018-05-17T04:11:01.682Z,35.20
2018-05-17T04:13:31.049Z,35.20
2018-05-17T04:16:01.052Z,35.40
2018-05-17T04:18:29.742Z,35.40
2018-05-17T04:20:58.834Z,35.70
2018-05-17T04:23:28.146Z,35.80
2018-05-17T04:25:56.766Z,35.80
2018-05-17T04:28:25.659Z,36.40
2018-05-17T04:30:54.204Z,36.60
2018-05-17T04:33:23.602Z,37.10
2018-05-17T04:35:52.390Z,37.00
2018-05-17T04:38:21.181Z,37.40
2018-05-17T04:40:49.909Z,38.40
2018-05-17T04:43:18.965Z,39.50
2018-05-17T04:45:47.594Z,39.70
2018-05-17T04:48:17.217Z,40.80
2018-05-17T04:50:47.202Z,40.80
2018-05-17T04:53:16.478Z,40.60
2018-05-17T04:55:47.112Z,40.20
2018-05-17T04:58:15.945Z,40.10
2018-05-17T05:00:44.565Z,39.40
2018-05-17T05:03:13.173Z,39.50
2018-05-17T05:05:42.169Z,39.70
2018-05-17T05:08:10.754Z,40.20
2018-05-17T05:10:39.794Z,40.70
2018-05-17T05:13:08.478Z,41.70
2018-05-17T05:15:38.248Z,42.00
2018-05-17T05:18:06.936Z,43.00
2018-05-17T05:20:36.442Z,42.50
2018-05-17T05:23:05.234Z,42.40
2018-05-17T05:25:34.021Z,41.50
2018-05-17T05:28:04.553Z,41.00
2018-05-17T05:30:33.853Z,41.20
2018-05-17T05:33:02.542Z,41.20
2018-05-17T05:35:32.457Z,40.30
2018-05-17T05:38:01.453Z,40.20
2018-05-17T05:40:30.598Z,39.70
2018-05-17T05:42:59.729Z,38.90
2018-05-17T05:45:28.690Z,38.20
2018-05-17T05:47:57.694Z,37.70
2018-05-17T05:50:26.822Z,37.30
2018-05-17T05:52:56.694Z,37.90
2018-05-17T05:55:25.691Z,39.80
2018-05-17T05:57:55.274Z,41.20
2018-05-17T06:00:25.142Z,42.40
2018-05-17T06:02:54.277Z,42.40
2018-05-17T06:05:23.421Z,42.50
2018-05-17T06:07:52.501Z,43.20
2018-05-17T06:10:21.577Z,42.70
2018-05-17T06:12:50.892Z,42.90
2018-05-17T06:15:19.870Z,42.60
2018-05-17T06:17:48.902Z,42.40
2018-05-17T06:20:18.046Z,42.20
2018-05-17T06:22:46.630Z,39.90
2018-05-17T06:25:15.524Z,39.30
2018-05-17T06:27:44.415Z,38.30
2018-05-17T06:30:13.102Z,38.20
2018-05-17T06:32:42.841Z,38.60
2018-05-17T06:35:12.946Z,38.60
2018-05-17T06:37:42.050Z,38.50
2018-05-17T06:40:11.751Z,38.10
2018-05-17T06:42:40.943Z,38.10
2018-05-17T06:45:09.527Z,38.50
2018-05-17T06:47:38.830Z,37.90
2018-05-17T06:50:08.437Z,37.90
2018-05-17T06:52:37.740Z,40.50
2018-05-17T06:55:15.664Z,40.50
2018-05-17T06:57:44.433Z,42.20
2018-05-17T07:00:13.118Z,43.30
2018-05-17T07:02:42.421Z,44.00
2018-05-17T07:05:11.108Z,43.70
2018-05-17T07:07:40.947Z,43.90
2018-05-17T07:10:11.118Z,42.70
2018-05-17T07:12:40.915Z,42.80
2018-05-17T07:15:09.911Z,42.60
2018-05-17T07:17:39.029Z,42.70
2018-05-17T07:20:07.998Z,42.70
2018-05-17T07:22:36.998Z,42.40
2018-05-17T07:25:06.419Z,41.40
2018-05-17T07:27:36.179Z,41.30
2018-05-17T07:30:05.969Z,40.70
2018-05-17T07:32:35.386Z,40.70
2018-05-17T07:35:04.635Z,41.10
2018-05-17T07:37:33.889Z,40.50
2018-05-17T07:40:03.074Z,40.00
2018-05-17T07:42:33.107Z,40.60
2018-05-17T07:45:02.849Z,40.10
2018-05-17T07:47:31.986Z,40.10
2018-05-17T07:50:02.078Z,40.20
2018-05-17T07:52:31.137Z,40.20
2018-05-17T07:55:00.478Z,39.90
2018-05-17T07:57:31.153Z,40.20
2018-05-17T08:00:00.911Z,40.20
2018-05-17T08:02:30.168Z,40.20
2018-05-17T08:05:00.262Z,39.70
2018-05-17T08:07:29.534Z,39.70
2018-05-17T08:09:58.630Z,39.50
2018-05-17T08:12:27.423Z,39.40
2018-05-17T08:14:56.723Z,39.50
2018-05-17T08:17:25.794Z,39.20
2018-05-17T08:19:54.791Z,39.50
2018-05-17T08:22:24.091Z,39.60
2018-05-17T08:24:53.186Z,39.40
2018-05-17T08:27:22.214Z,39.50
2018-05-17T08:29:51.350Z,39.40
2018-05-17T08:32:21.188Z,39.40
2018-05-17T08:34:50.475Z,39.10
2018-05-17T08:37:20.186Z,39.40
2018-05-17T08:39:48.771Z,39.40
2018-05-17T08:42:17.355Z,39.20
2018-05-17T08:44:46.247Z,39.40
2018-05-17T08:47:15.754Z,39.10
2018-05-17T08:49:44.663Z,39.10
2018-05-17T08:52:13.803Z,39.30
2018-05-17T08:54:42.690Z,39.40
2018-05-17T08:57:11.764Z,39.30
2018-05-17T08:59:42.805Z,39.30
2018-05-17T09:02:11.774Z,39.40
2018-05-17T09:04:40.709Z,39.30
2018-05-17T09:07:10.274Z,39.30
2018-05-17T09:09:39.442Z,39.20
2018-05-17T09:12:08.578Z,39.10
2018-05-17T09:14:38.466Z,39.40
2018-05-17T09:17:08.241Z,39.30
2018-05-17T09:19:36.984Z,39.30
2018-05-17T09:22:07.206Z,39.40
2018-05-17T09:24:36.517Z,39.40
2018-05-17T09:27:05.583Z,39.40
2018-05-17T09:29:35.406Z,39.50
2018-05-17T09:32:05.278Z,39.50
2018-05-17T09:34:34.374Z,39.50
2018-05-17T09:37:03.886Z,39.40
2018-05-17T09:39:32.856Z,39.20
2018-05-17T09:42:01.846Z,39.40
2018-05-17T09:44:31.991Z,39.40
2018-05-17T09:47:00.982Z,39.40
2018-05-17T09:49:29.978Z,39.50
2018-05-17T09:51:59.254Z,39.50
2018-05-17T09:54:29.228Z,39.70
2018-05-17T09:56:58.426Z,39.70
2018-05-17T09:59:27.802Z,39.60
2018-05-17T10:01:57.212Z,39.60
2018-05-17T10:04:26.210Z,39.70
2018-05-17T10:06:55.538Z,39.50
2018-05-17T10:09:24.350Z,39.40
2018-05-17T10:11:53.358Z,39.40
2018-05-17T10:14:22.531Z,39.50
2018-05-17T10:16:51.377Z,39.50
2018-05-17T10:19:20.377Z,39.50
2018-05-17T10:21:49.551Z,39.40
2018-05-17T10:24:18.827Z,39.20
2018-05-17T10:26:47.997Z,39.20
2018-05-17T10:29:17.458Z,39.00
2018-05-17T10:31:47.448Z,39.00
2018-05-17T10:34:17.279Z,39.00
2018-05-17T10:36:47.343Z,39.00
2018-05-17T10:39:16.705Z,39.00
2018-05-17T10:41:46.949Z,39.10
2018-05-17T10:44:16.054Z,39.10
2018-05-17T10:46:45.043Z,39.10
2018-05-17T10:49:14.422Z,39.10
2018-05-17T10:51:44.890Z,39.20
2018-05-17T10:54:13.517Z,39.20
2018-05-17T10:56:43.024Z,39.20
2018-05-17T10:59:12.280Z,38.90
2018-05-17T11:01:40.809Z,38.90
2018-05-17T11:04:11.078Z,39.00
2018-05-17T11:06:39.823Z,39.00
2018-05-17T11:09:08.611Z,38.80
2018-05-17T11:11:37.846Z,38.60
2018-05-17T11:14:07.094Z,38.50
2018-05-17T11:16:37.012Z,38.60
2018-05-17T11:19:08.683Z,38.60
2018-05-17T11:21:38.396Z,38.40
2018-05-17T11:24:08.050Z,38.40
2018-05-17T11:26:36.794Z,38.30
2018-05-17T11:29:06.098Z,38.30
2018-05-17T11:31:35.704Z,38.20
2018-05-17T11:34:06.237Z,38.10
2018-05-17T11:36:35.260Z,38.10
2018-05-17T11:39:04.686Z,38.00
2018-05-17T11:41:34.446Z,37.90
2018-05-17T11:44:04.286Z,37.90
2018-05-17T11:46:33.715Z,38.00
2018-05-17T11:49:02.661Z,37.90
2018-05-17T11:51:31.559Z,37.80
2018-05-17T11:54:01.814Z,37.90
2018-05-17T11:56:31.171Z,37.90
2018-05-17T11:59:00.203Z,37.80
2018-05-17T12:01:29.237Z,37.60
2018-05-17T12:03:58.576Z,37.40
2018-05-17T12:06:28.433Z,37.20
2018-05-17T12:08:57.725Z,37.20
2018-05-17T12:11:26.709Z,37.10
2018-05-17T12:13:56.712Z,37.00
2018-05-17T12:16:25.954Z,37.00
2018-05-17T12:18:55.230Z,37.00
2018-05-17T12:21:24.317Z,37.10
2018-05-17T12:23:53.792Z,37.20
2018-05-17T12:26:23.638Z,37.30
2018-05-17T12:28:52.660Z,37.30
2018-05-17T12:31:22.819Z,37.20
2018-05-17T12:33:53.575Z,36.90
2018-05-17T12:36:24.747Z,36.80
2018-05-17T12:38:54.624Z,36.70
2018-05-17T12:41:23.846Z,36.70
2018-05-17T12:43:53.682Z,36.60
2018-05-17T12:46:22.638Z,36.60
2018-05-17T12:48:51.738Z,36.50
2018-05-17T12:51:21.114Z,36.50
2018-05-17T12:53:50.210Z,36.50
2018-05-17T12:56:20.859Z,36.40
2018-05-17T12:58:51.594Z,36.40
2018-05-17T13:01:22.629Z,36.30
2018-05-17T13:03:52.478Z,36.30
2018-05-17T13:06:21.471Z,36.30
2018-05-17T13:08:50.675Z,36.40
2018-05-17T13:11:19.699Z,36.50
2018-05-17T13:13:48.789Z,36.30
2018-05-17T13:16:19.039Z,36.20
2018-05-17T13:18:48.188Z,36.20
2018-05-17T13:21:17.282Z,36.10
2018-05-17T13:23:46.494Z,36.20
2018-05-17T13:26:16.485Z,36.00
2018-05-17T13:28:46.263Z,36.00
2018-05-17T13:31:15.314Z,36.00
2018-05-17T13:33:44.322Z,35.90
2018-05-17T13:36:14.278Z,35.90
2018-05-17T13:38:43.653Z,35.90
2018-05-17T13:41:13.326Z,35.90
2018-05-17T13:43:42.239Z,35.80
2018-05-17T13:46:11.333Z,35.80
2018-05-17T13:48:41.166Z,35.40
2018-05-17T13:51:11.141Z,35.40
2018-05-17T13:53:39.828Z,35.30
2018-05-17T13:56:10.155Z,35.10
2018-05-17T13:58:39.342Z,35.10
2018-05-17T14:01:07.939Z,35.10
2018-05-17T14:03:36.626Z,35.00
2018-05-17T14:06:05.319Z,35.00
2018-05-17T14:08:35.432Z,34.90
2018-05-17T14:11:05.361Z,34.90
2018-05-17T14:13:34.522Z,34.90
2018-05-17T14:16:03.869Z,34.80
2018-05-17T14:18:33.014Z,34.80
2018-05-17T14:21:02.090Z,34.60
2018-05-17T14:23:31.352Z,34.50
2018-05-17T14:26:01.314Z,34.50
2018-05-17T14:28:30.614Z,34.50
2018-05-17T14:30:59.610Z,34.30
2018-05-17T14:33:28.671Z,34.10
2018-05-17T14:35:58.110Z,34.00
2018-05-17T14:38:27.570Z,34.00
2018-05-17T14:40:56.151Z,34.00
2018-05-17T14:43:25.760Z,34.00
2018-05-17T14:45:56.120Z,33.80
2018-05-17T14:48:24.875Z,33.90
2018-05-17T14:50:53.767Z,33.80
2018-05-17T14:53:24.505Z,33.70
2018-05-17T14:55:53.199Z,33.70
2018-05-17T14:58:23.107Z,33.60
2018-05-17T15:00:52.826Z,33.60
2018-05-17T15:03:21.606Z,33.70
2018-05-17T15:05:52.006Z,33.70
2018-05-17T15:08:21.541Z,33.70
2018-05-17T15:10:50.228Z,33.70
2018-05-17T15:13:20.402Z,33.60
2018-05-17T15:15:48.935Z,33.60
2018-05-17T15:18:18.440Z,33.50
2018-05-17T15:20:47.435Z,33.50
2018-05-17T15:23:17.165Z,33.50
2018-05-17T15:25:46.159Z,33.50
2018-05-17T15:28:15.135Z,33.60
2018-05-17T15:30:43.720Z,33.60
2018-05-17T15:33:13.023Z,33.50
2018-05-17T15:35:42.017Z,33.50
2018-05-17T15:38:11.319Z,33.60
2018-05-17T15:40:39.904Z,33.60
2018-05-17T15:43:09.615Z,33.60
2018-05-17T15:45:38.609Z,33.60
2018-05-17T15:48:08.500Z,33.40
2018-05-17T15:50:38.024Z,33.40
2018-05-17T15:53:07.862Z,33.40
2018-05-17T15:55:36.954Z,33.30
2018-05-17T15:58:06.175Z,33.40
2018-05-17T16:00:35.866Z,33.30
2018-05-17T16:03:06.098Z,33.30
2018-05-17T16:05:35.094Z,33.30
2018-05-17T16:08:04.192Z,33.20
2018-05-17T16:10:34.406Z,33.10
2018-05-17T16:13:03.532Z,33.10
2018-05-17T16:15:32.647Z,33.10
2018-05-17T16:18:02.927Z,33.00
2018-05-17T16:20:32.623Z,33.10
2018-05-17T16:23:01.572Z,33.10
2018-05-17T16:25:30.668Z,33.10
2018-05-17T16:27:59.718Z,33.00
2018-05-17T16:30:28.293Z,33.00
2018-05-17T16:32:58.108Z,33.00
2018-05-17T16:35:26.614Z,33.00
2018-05-17T16:37:55.428Z,32.90
2018-05-17T16:40:24.276Z,32.90
2018-05-17T16:42:53.310Z,32.90
2018-05-17T16:45:22.405Z,32.80
2018-05-17T16:47:52.034Z,32.90
2018-05-17T16:50:20.987Z,32.80
2018-05-17T16:52:50.115Z,32.80
2018-05-17T16:55:19.608Z,32.80
2018-05-17T16:57:48.846Z,32.80
2018-05-17T17:00:17.885Z,32.70
2018-05-17T17:02:46.661Z,32.80
2018-05-17T17:05:17.756Z,32.80
2018-05-17T17:07:46.493Z,32.80
2018-05-17T17:10:15.381Z,32.70
2018-05-17T17:12:43.969Z,32.70
2018-05-17T17:15:13.164Z,32.70
2018-05-17T17:17:42.644Z,32.70
2018-05-17T17:20:11.666Z,32.60
2018-05-17T17:22:40.844Z,32.70
2018-05-17T17:25:10.298Z,32.70
2018-05-17T17:27:40.289Z,32.50
2018-05-17T17:30:10.021Z,32.50
2018-05-17T17:32:40.134Z,32.40
2018-05-17T17:35:09.259Z,32.40
2018-05-17T17:37:39.180Z,32.40
2018-05-17T17:40:09.741Z,32.30
2018-05-17T17:42:38.965Z,32.30
2018-05-17T17:45:08.178Z,32.30
2018-05-17T17:47:37.589Z,32.30
2018-05-17T17:50:06.478Z,32.30
2018-05-17T17:52:36.478Z,32.20
2018-05-17T17:55:06.490Z,32.30
2018-05-17T17:57:35.450Z,32.20
2018-05-17T18:00:04.712Z,32.20
2018-05-17T18:02:34.930Z,32.20
2018-05-17T18:05:03.961Z,32.20
2018-05-17T18:07:33.838Z,32.20
2018-05-17T18:10:03.604Z,32.20
2018-05-17T18:12:32.591Z,32.10
2018-05-17T18:15:01.597Z,32.10
2018-05-17T18:17:30.895Z,32.10
2018-05-17T18:19:59.877Z,32.10
2018-05-17T18:22:28.869Z,32.00
2018-05-17T18:24:58.050Z,32.10
2018-05-17T18:27:27.118Z,32.10
2018-05-17T18:29:56.053Z,32.30
2018-05-17T18:32:25.289Z,32.30
2018-05-17T18:34:54.202Z,32.20
2018-05-17T18:37:23.217Z,32.20
2018-05-17T18:39:52.464Z,32.20
2018-05-17T18:42:21.388Z,32.20
2018-05-17T18:44:50.796Z,32.10
2018-05-17T18:47:20.798Z,32.00
2018-05-17T18:49:51.295Z,32.00
2018-05-17T18:52:20.295Z,32.10
2018-05-17T18:54:49.794Z,32.10
2018-05-17T18:57:18.938Z,32.00
2018-05-17T18:59:50.148Z,32.10
2018-05-17T19:02:20.367Z,32.10
2018-05-17T19:04:51.246Z,32.10
2018-05-17T19:07:20.982Z,32.10
2018-05-17T19:09:50.941Z,32.10
2018-05-17T19:12:19.995Z,32.10
2018-05-17T19:14:49.355Z,32.00
2018-05-17T19:17:20.286Z,32.10
2018-05-17T19:19:50.359Z,32.00
2018-05-17T19:22:20.226Z,32.00
2018-05-17T19:24:51.357Z,32.00
2018-05-17T19:27:20.510Z,32.00
2018-05-17T19:29:49.517Z,32.00
2018-05-17T19:32:20.255Z,31.90
2018-05-17T19:34:49.182Z,31.80
2018-05-17T19:37:21.177Z,31.90
2018-05-17T19:39:50.275Z,31.80
2018-05-17T19:42:19.043Z,31.80
2018-05-17T19:44:48.186Z,31.80
2018-05-17T19:47:18.521Z,31.80
2018-05-17T19:49:47.506Z,31.80
2018-05-17T19:52:16.517Z,31.80
2018-05-17T19:54:45.912Z,31.80
2018-05-17T19:57:15.048Z,31.80
2018-05-17T19:59:44.044Z,31.70
2018-05-17T20:02:13.390Z,31.80
2018-05-17T20:04:42.413Z,31.70
2018-05-17T20:07:12.309Z,31.70
2018-05-17T20:09:41.663Z,31.70
2018-05-17T20:12:16.873Z,31.70
2018-05-17T20:14:46.258Z,31.70
2018-05-17T20:17:15.993Z,31.60
2018-05-17T20:19:44.955Z,31.60
2018-05-17T20:22:22.908Z,31.60
2018-05-17T20:24:53.805Z,31.60
2018-05-17T20:27:25.590Z,31.60
2018-05-17T20:29:54.718Z,31.60
2018-05-17T20:32:23.783Z,31.50
2018-05-17T20:34:52.981Z,31.60
2018-05-17T20:37:22.079Z,31.50
2018-05-17T20:39:51.178Z,31.40
2018-05-17T20:42:20.447Z,31.50
2018-05-17T20:44:49.441Z,31.40
2018-05-17T20:47:18.443Z,31.50
2018-05-17T20:49:48.563Z,31.50
2018-05-17T20:52:17.685Z,31.40
2018-05-17T20:54:46.646Z,31.40
2018-05-17T20:57:15.858Z,31.40
2018-05-17T20:59:45.851Z,31.40
2018-05-17T21:02:15.822Z,31.40
2018-05-17T21:04:44.809Z,31.40
2018-05-17T21:07:13.815Z,31.40
2018-05-17T21:09:43.047Z,31.30
2018-05-17T21:12:13.522Z,31.30
2018-05-17T21:14:42.489Z,31.30
2018-05-17T21:17:11.671Z,31.30
2018-05-17T21:19:41.523Z,31.20
2018-05-17T21:22:11.866Z,31.20
2018-05-17T21:24:40.863Z,31.20
2018-05-17T21:27:09.966Z,31.20
2018-05-17T21:29:39.242Z,31.10
2018-05-17T21:32:09.658Z,31.10
2018-05-17T21:34:38.673Z,31.00
2018-05-17T21:37:08.022Z,31.00
2018-05-17T21:39:36.995Z,31.00
2018-05-17T21:42:06.077Z,30.90
2018-05-17T21:44:35.289Z,31.00
2018-05-17T21:47:04.230Z,31.00
2018-05-17T21:49:33.227Z,31.00
2018-05-17T21:52:03.258Z,30.90
2018-05-17T21:54:32.255Z,30.90
2018-05-17T21:57:02.046Z,31.00
2018-05-17T21:59:32.145Z,30.90
2018-05-17T22:02:01.263Z,31.00
2018-05-17T22:04:30.819Z,30.90
2018-05-17T22:07:00.243Z,30.90
2018-05-17T22:09:29.323Z,30.90
2018-05-17T22:11:58.325Z,30.90
2018-05-17T22:14:29.419Z,30.90
2018-05-17T22:16:59.255Z,30.80
2018-05-17T22:19:29.032Z,30.70
2018-05-17T22:21:59.711Z,30.80
2018-05-17T22:24:28.719Z,30.80
2018-05-17T22:26:57.659Z,30.80
2018-05-17T22:29:26.904Z,30.80
2018-05-17T22:31:55.920Z,30.80
2018-05-17T22:34:25.052Z,30.80
2018-05-17T22:36:54.440Z,30.70
2018-05-17T22:39:23.535Z,30.70
2018-05-17T22:41:53.436Z,30.70
2018-05-17T22:44:23.004Z,30.70
2018-05-17T22:46:52.054Z,30.70
2018-05-17T22:49:21.100Z,30.60
2018-05-17T22:51:50.354Z,30.70
2018-05-17T22:54:20.471Z,30.60
2018-05-17T22:57:01.161Z,30.60
2018-05-17T22:59:30.052Z,30.60
2018-05-17T23:01:59.103Z,30.60
2018-05-17T23:04:28.288Z,30.50
2018-05-17T23:06:57.131Z,30.50
2018-05-17T23:09:27.321Z,30.50
2018-05-17T23:11:56.516Z,30.50
2018-05-17T23:14:25.516Z,30.50
2018-05-17T23:16:55.936Z,30.50
2018-05-17T23:19:25.136Z,30.50
2018-05-17T23:21:54.240Z,30.40
2018-05-17T23:24:23.327Z,30.40
2018-05-17T23:26:52.615Z,30.50
2018-05-17T23:29:22.064Z,30.50
2018-05-17T23:31:51.212Z,30.50
2018-05-17T23:34:20.455Z,30.40
2018-05-17T23:36:49.539Z,30.40
2018-05-17T23:39:18.736Z,30.40
2018-05-17T23:41:48.119Z,30.40
2018-05-17T23:44:17.072Z,30.50
2018-05-17T23:46:46.018Z,30.40
2018-05-17T23:49:15.240Z,30.40
2018-05-17T23:51:44.162Z,30.40
2018-05-17T23:54:13.886Z,30.40
2018-05-17T23:56:43.085Z,30.30
2018-05-17T23:59:12.084Z,30.40
